sensor_id;sensor_type;location;lat;lon;timestamp;pressure;altitude;pressure_sealevel;temperature;humidity
54329;BME280;40710;51.120;13.136;2022-08-21T00:01:30;99369.47;;;24.08;63.66
54329;BME280;40710;51.120;13.136;2022-08-21T00:03:55;99358.56;;;24.18;63.24
54329;BME280;40710;51.120;13.136;2022-08-21T00:06:21;99366.97;;;24.15;63.46
54329;BME280;40710;51.120;13.136;2022-08-21T00:08:45;99361.22;;;24.34;62.76
54329;BME280;40710;51.120;13.136;2022-08-21T00:11:10;99365.81;;;24.09;63.20
54329;BME280;40710;51.120;13.136;2022-08-21T00:13:35;99364.63;;;23.87;63.98
54329;BME280;40710;51.120;13.136;2022-08-21T00:16:00;99363.78;;;24.03;63.69
54329;BME280;40710;51.120;13.136;2022-08-21T00:18:25;99359.09;;;23.97;63.70
54329;BME280;40710;51.120;13.136;2022-08-21T00:20:50;99357.06;;;23.99;63.70
54329;BME280;40710;51.120;13.136;2022-08-21T00:23:15;99353.31;;;24.49;62.21
54329;BME280;40710;51.120;13.136;2022-08-21T00:25:41;99357.06;;;24.15;63.10
54329;BME280;40710;51.120;13.136;2022-08-21T00:28:05;99360.09;;;24.04;63.70
54329;BME280;40710;51.120;13.136;2022-08-21T00:30:30;99354.22;;;24.01;63.68
54329;BME280;40710;51.120;13.136;2022-08-21T00:32:56;99356.03;;;23.75;64.14
54329;BME280;40710;51.120;13.136;2022-08-21T00:35:25;99362.91;;;23.70;64.77
54329;BME280;40710;51.120;13.136;2022-08-21T00:37:50;99352.53;;;24.00;64.00
54329;BME280;40710;51.120;13.136;2022-08-21T00:40:17;99354.56;;;23.97;64.04
54329;BME280;40710;51.120;13.136;2022-08-21T00:42:42;99348.84;;;24.17;63.46
54329;BME280;40710;51.120;13.136;2022-08-21T00:45:08;99348.66;;;24.27;63.15
54329;BME280;40710;51.120;13.136;2022-08-21T00:47:33;99355.72;;;24.11;63.45
54329;BME280;40710;51.120;13.136;2022-08-21T00:49:57;99362.09;;;23.86;64.46
54329;BME280;40710;51.120;13.136;2022-08-21T00:52:25;99349.00;;;24.15;63.47
54329;BME280;40710;51.120;13.136;2022-08-21T00:54:51;99353.41;;;24.00;63.65
54329;BME280;40710;51.120;13.136;2022-08-21T00:57:26;99356.38;;;23.81;64.88
54329;BME280;40710;51.120;13.136;2022-08-21T00:59:53;99370.41;;;23.41;66.05
54329;BME280;40710;51.120;13.136;2022-08-21T01:02:19;99354.22;;;23.92;64.59
54329;BME280;40710;51.120;13.136;2022-08-21T01:04:44;99353.22;;;24.10;63.88
54329;BME280;40710;51.120;13.136;2022-08-21T01:07:09;99353.72;;;24.13;63.92
54329;BME280;40710;51.120;13.136;2022-08-21T01:09:33;99349.19;;;23.89;64.74
54329;BME280;40710;51.120;13.136;2022-08-21T01:11:58;99360.72;;;23.73;65.21
54329;BME280;40710;51.120;13.136;2022-08-21T01:14:23;99358.53;;;23.77;65.01
54329;BME280;40710;51.120;13.136;2022-08-21T01:16:50;99355.91;;;23.85;64.85
54329;BME280;40710;51.120;13.136;2022-08-21T01:19:16;99361.22;;;23.60;65.78
54329;BME280;40710;51.120;13.136;2022-08-21T01:21:41;99362.84;;;23.45;66.24
54329;BME280;40710;51.120;13.136;2022-08-21T01:24:05;99364.28;;;23.82;65.06
54329;BME280;40710;51.120;13.136;2022-08-21T01:26:33;99357.53;;;23.78;65.25
54329;BME280;40710;51.120;13.136;2022-08-21T01:29:03;99372.78;;;23.61;65.99
54329;BME280;40710;51.120;13.136;2022-08-21T01:31:29;99363.06;;;23.76;65.51
54329;BME280;40710;51.120;13.136;2022-08-21T01:33:55;99361.91;;;23.71;65.55
54329;BME280;40710;51.120;13.136;2022-08-21T01:36:20;99365.56;;;23.70;65.71
54329;BME280;40710;51.120;13.136;2022-08-21T01:38:44;99358.91;;;23.82;65.57
54329;BME280;40710;51.120;13.136;2022-08-21T01:41:09;99354.56;;;24.06;64.64
54329;BME280;40710;51.120;13.136;2022-08-21T01:43:33;99356.56;;;24.12;64.38
54329;BME280;40710;51.120;13.136;2022-08-21T01:45:58;99349.16;;;24.22;64.21
54329;BME280;40710;51.120;13.136;2022-08-21T01:48:22;99356.25;;;23.99;64.96
54329;BME280;40710;51.120;13.136;2022-08-21T01:50:46;99365.63;;;23.94;64.93
54329;BME280;40710;51.120;13.136;2022-08-21T01:53:11;99365.75;;;23.68;65.74
54329;BME280;40710;51.120;13.136;2022-08-21T01:55:35;99369.63;;;23.74;66.20
54329;BME280;40710;51.120;13.136;2022-08-21T01:57:59;99372.66;;;23.79;65.80
54329;BME280;40710;51.120;13.136;2022-08-21T02:00:25;99368.44;;;23.76;65.71
54329;BME280;40710;51.120;13.136;2022-08-21T02:02:50;99371.09;;;23.68;66.04
54329;BME280;40710;51.120;13.136;2022-08-21T02:05:15;99365.41;;;23.71;66.02
54329;BME280;40710;51.120;13.136;2022-08-21T02:07:42;99369.28;;;23.69;65.90
54329;BME280;40710;51.120;13.136;2022-08-21T02:10:09;99363.28;;;23.91;65.33
54329;BME280;40710;51.120;13.136;2022-08-21T02:12:34;99364.44;;;23.81;65.34
54329;BME280;40710;51.120;13.136;2022-08-21T02:14:59;99363.25;;;23.67;65.93
54329;BME280;40710;51.120;13.136;2022-08-21T02:17:24;99360.88;;;23.72;65.76
54329;BME280;40710;51.120;13.136;2022-08-21T02:19:48;99363.91;;;23.69;65.90
54329;BME280;40710;51.120;13.136;2022-08-21T02:22:13;99364.91;;;23.51;66.20
54329;BME280;40710;51.120;13.136;2022-08-21T02:24:38;99360.56;;;23.75;65.62
54329;BME280;40710;51.120;13.136;2022-08-21T02:27:02;99358.19;;;23.72;65.78
54329;BME280;40710;51.120;13.136;2022-08-21T02:29:27;99353.19;;;23.69;65.90
54329;BME280;40710;51.120;13.136;2022-08-21T02:31:51;99354.34;;;23.58;66.03
54329;BME280;40710;51.120;13.136;2022-08-21T02:34:17;99354.34;;;23.58;66.24
54329;BME280;40710;51.120;13.136;2022-08-21T02:36:41;99357.69;;;23.60;65.96
54329;BME280;40710;51.120;13.136;2022-08-21T02:39:05;99358.84;;;23.57;66.30
54329;BME280;40710;51.120;13.136;2022-08-21T02:41:30;99353.16;;;23.77;65.48
54329;BME280;40710;51.120;13.136;2022-08-21T02:43:55;99348.50;;;23.79;65.06
54329;BME280;40710;51.120;13.136;2022-08-21T02:46:20;99340.28;;;23.81;65.00
54329;BME280;40710;51.120;13.136;2022-08-21T02:48:45;99344.66;;;23.82;64.46
54329;BME280;40710;51.120;13.136;2022-08-21T02:51:17;99340.44;;;23.79;64.56
54329;BME280;40710;51.120;13.136;2022-08-21T02:53:42;99347.81;;;23.77;64.81
54329;BME280;40710;51.120;13.136;2022-08-21T02:56:09;99346.16;;;23.76;64.60
54329;BME280;40710;51.120;13.136;2022-08-21T02:58:37;99354.34;;;23.66;64.79
54329;BME280;40710;51.120;13.136;2022-08-21T03:01:02;99355.31;;;23.49;65.18
54329;BME280;40710;51.120;13.136;2022-08-21T03:03:28;99340.94;;;23.74;64.08
54329;BME280;40710;51.120;13.136;2022-08-21T03:05:54;99335.44;;;23.84;63.74
54329;BME280;40710;51.120;13.136;2022-08-21T03:08:18;99336.41;;;23.75;64.16
54329;BME280;40710;51.120;13.136;2022-08-21T03:10:47;99336.75;;;23.64;64.61
54329;BME280;40710;51.120;13.136;2022-08-21T03:13:12;99342.13;;;23.64;64.68
54329;BME280;40710;51.120;13.136;2022-08-21T03:15:37;99347.63;;;23.54;64.71
54329;BME280;40710;51.120;13.136;2022-08-21T03:18:02;99347.94;;;23.43;65.07
54329;BME280;40710;51.120;13.136;2022-08-21T03:20:28;99334.88;;;23.56;64.49
54329;BME280;40710;51.120;13.136;2022-08-21T03:22:54;99338.91;;;23.52;64.81
54329;BME280;40710;51.120;13.136;2022-08-21T03:25:20;99332.53;;;23.61;64.20
54329;BME280;40710;51.120;13.136;2022-08-21T03:27:45;99333.53;;;23.68;63.64
54329;BME280;40710;51.120;13.136;2022-08-21T03:30:10;99340.06;;;23.57;63.45
54329;BME280;40710;51.120;13.136;2022-08-21T03:32:34;99332.53;;;23.61;63.54
54329;BME280;40710;51.120;13.136;2022-08-21T03:35:00;99343.09;;;23.46;63.93
54329;BME280;40710;51.120;13.136;2022-08-21T03:37:24;99344.78;;;23.55;63.72
54329;BME280;40710;51.120;13.136;2022-08-21T03:39:48;99355.13;;;23.34;64.49
54329;BME280;40710;51.120;13.136;2022-08-21T03:42:13;99355.50;;;23.39;64.30
54329;BME280;40710;51.120;13.136;2022-08-21T03:44:37;99360.34;;;23.35;64.33
54329;BME280;40710;51.120;13.136;2022-08-21T03:47:03;99359.50;;;23.43;63.99
54329;BME280;40710;51.120;13.136;2022-08-21T03:49:28;99358.53;;;23.60;63.74
54329;BME280;40710;51.120;13.136;2022-08-21T03:51:53;99364.38;;;23.48;63.83
54329;BME280;40710;51.120;13.136;2022-08-21T03:54:18;99356.34;;;23.48;63.82
54329;BME280;40710;51.120;13.136;2022-08-21T03:56:43;99357.66;;;23.35;64.22
54329;BME280;40710;51.120;13.136;2022-08-21T03:59:07;99358.50;;;23.36;64.18
54329;BME280;40710;51.120;13.136;2022-08-21T04:01:32;99362.31;;;23.33;64.16
54329;BME280;40710;51.120;13.136;2022-08-21T04:03:56;99363.69;;;23.37;64.10
54329;BME280;40710;51.120;13.136;2022-08-21T04:06:21;99365.00;;;23.33;64.40
54329;BME280;40710;51.120;13.136;2022-08-21T04:08:45;99366.00;;;23.24;64.33
54329;BME280;40710;51.120;13.136;2022-08-21T04:11:10;99363.81;;;23.28;64.64
54329;BME280;40710;51.120;13.136;2022-08-21T04:13:34;99361.56;;;23.49;63.75
54329;BME280;40710;51.120;13.136;2022-08-21T04:15:59;99369.91;;;23.46;63.79
54329;BME280;40710;51.120;13.136;2022-08-21T04:18:23;99372.25;;;23.41;64.20
54329;BME280;40710;51.120;13.136;2022-08-21T04:20:50;99374.53;;;23.28;64.40
54329;BME280;40710;51.120;13.136;2022-08-21T04:23:15;99381.38;;;23.14;65.05
54329;BME280;40710;51.120;13.136;2022-08-21T04:25:40;99382.59;;;23.19;64.88
54329;BME280;40710;51.120;13.136;2022-08-21T04:28:04;99384.41;;;23.19;64.72
54329;BME280;40710;51.120;13.136;2022-08-21T04:30:29;99386.25;;;23.18;65.14
54329;BME280;40710;51.120;13.136;2022-08-21T04:32:53;99388.94;;;23.18;64.87
54329;BME280;40710;51.120;13.136;2022-08-21T04:35:21;99401.94;;;23.05;65.31
54329;BME280;40710;51.120;13.136;2022-08-21T04:37:46;99400.78;;;23.08;65.32
54329;BME280;40710;51.120;13.136;2022-08-21T04:40:13;99404.88;;;22.94;65.77
54329;BME280;40710;51.120;13.136;2022-08-21T04:42:49;99398.63;;;23.11;65.22
54329;BME280;40710;51.120;13.136;2022-08-21T04:45:32;99405.66;;;23.12;65.07
54329;BME280;40710;51.120;13.136;2022-08-21T04:47:58;99406.44;;;23.04;65.41
54329;BME280;40710;51.120;13.136;2022-08-21T04:50:27;99416.28;;;22.96;65.62
54329;BME280;40710;51.120;13.136;2022-08-21T04:52:55;99408.34;;;23.12;65.27
54329;BME280;40710;51.120;13.136;2022-08-21T04:55:19;99409.22;;;22.87;65.96
54329;BME280;40710;51.120;13.136;2022-08-21T04:57:44;99410.25;;;22.94;66.21
54329;BME280;40710;51.120;13.136;2022-08-21T05:00:09;99409.88;;;22.89;66.12
54329;BME280;40710;51.120;13.136;2022-08-21T05:02:36;99417.63;;;22.92;65.87
54329;BME280;40710;51.120;13.136;2022-08-21T05:05:01;99413.91;;;22.93;65.68
54329;BME280;40710;51.120;13.136;2022-08-21T05:07:29;99412.34;;;23.08;65.15
54329;BME280;40710;51.120;13.136;2022-08-21T05:09:54;99416.97;;;22.98;65.40
54329;BME280;40710;51.120;13.136;2022-08-21T05:12:18;99416.06;;;23.07;65.15
54329;BME280;40710;51.120;13.136;2022-08-21T05:14:43;99412.88;;;23.12;64.87
54329;BME280;40710;51.120;13.136;2022-08-21T05:17:08;99412.97;;;23.02;65.21
54329;BME280;40710;51.120;13.136;2022-08-21T05:19:32;99421.41;;;23.07;64.61
54329;BME280;40710;51.120;13.136;2022-08-21T05:21:57;99409.88;;;23.15;64.48
54329;BME280;40710;51.120;13.136;2022-08-21T05:24:22;99414.34;;;23.06;64.48
54329;BME280;40710;51.120;13.136;2022-08-21T05:26:46;99412.34;;;23.08;64.40
54329;BME280;40710;51.120;13.136;2022-08-21T05:29:12;99416.41;;;23.20;64.20
54329;BME280;40710;51.120;13.136;2022-08-21T05:31:37;99418.06;;;23.13;63.92
54329;BME280;40710;51.120;13.136;2022-08-21T05:34:01;99419.81;;;23.31;63.49
54329;BME280;40710;51.120;13.136;2022-08-21T05:36:26;99412.09;;;23.28;62.97
54329;BME280;40710;51.120;13.136;2022-08-21T05:38:50;99415.00;;;23.43;62.92
54329;BME280;40710;51.120;13.136;2022-08-21T05:41:15;99418.13;;;23.30;63.17
54329;BME280;40710;51.120;13.136;2022-08-21T05:43:39;99412.84;;;23.54;62.86
54329;BME280;40710;51.120;13.136;2022-08-21T05:46:04;99415.19;;;23.57;62.23
54329;BME280;40710;51.120;13.136;2022-08-21T05:48:29;99410.50;;;23.59;62.44
54329;BME280;40710;51.120;13.136;2022-08-21T05:50:53;99395.28;;;23.76;61.71
54329;BME280;40710;51.120;13.136;2022-08-21T05:53:20;99401.19;;;23.88;61.63
54329;BME280;40710;51.120;13.136;2022-08-21T05:55:46;99404.13;;;23.60;61.70
54329;BME280;40710;51.120;13.136;2022-08-21T05:58:16;99403.69;;;23.82;61.47
54329;BME280;40710;51.120;13.136;2022-08-21T06:00:40;99398.19;;;23.91;60.73
54329;BME280;40710;51.120;13.136;2022-08-21T06:03:10;99401.31;;;23.70;60.90
54329;BME280;40710;51.120;13.136;2022-08-21T06:05:35;99400.84;;;23.83;60.35
54329;BME280;40710;51.120;13.136;2022-08-21T06:07:59;99391.13;;;23.90;59.77
54329;BME280;40710;51.120;13.136;2022-08-21T06:10:24;99403.56;;;23.91;59.98
54329;BME280;40710;51.120;13.136;2022-08-21T06:12:53;99402.03;;;23.97;59.71
54329;BME280;40710;51.120;13.136;2022-08-21T06:15:18;99393.81;;;23.90;59.83
54329;BME280;40710;51.120;13.136;2022-08-21T06:17:42;99394.16;;;24.12;59.56
54329;BME280;40710;51.120;13.136;2022-08-21T06:20:07;99392.13;;;24.14;59.20
54329;BME280;40710;51.120;13.136;2022-08-21T06:22:32;99392.81;;;24.16;58.61
54329;BME280;40710;51.120;13.136;2022-08-21T06:24:56;99384.75;;;24.08;58.70
54329;BME280;40710;51.120;13.136;2022-08-21T06:27:20;99385.09;;;24.05;58.63
54329;BME280;40710;51.120;13.136;2022-08-21T06:29:45;99386.56;;;24.40;58.03
54329;BME280;40710;51.120;13.136;2022-08-21T06:32:11;99388.09;;;24.34;58.37
54329;BME280;40710;51.120;13.136;2022-08-21T06:34:37;99387.91;;;24.28;57.92
54329;BME280;40710;51.120;13.136;2022-08-21T06:37:04;99388.59;;;24.38;57.79
54329;BME280;40710;51.120;13.136;2022-08-21T06:39:29;99390.28;;;24.39;57.74
54329;BME280;40710;51.120;13.136;2022-08-21T06:41:53;99394.13;;;24.45;57.64
54329;BME280;40710;51.120;13.136;2022-08-21T06:44:19;99392.78;;;24.41;57.84
54329;BME280;40710;51.120;13.136;2022-08-21T06:46:43;99406.72;;;24.36;57.36
54329;BME280;40710;51.120;13.136;2022-08-21T06:49:07;99401.53;;;24.34;57.59
54329;BME280;40710;51.120;13.136;2022-08-21T06:51:32;99400.19;;;24.22;57.96
54329;BME280;40710;51.120;13.136;2022-08-21T06:53:56;99403.69;;;24.31;57.77
54329;BME280;40710;51.120;13.136;2022-08-21T06:56:21;99394.13;;;24.37;57.66
54329;BME280;40710;51.120;13.136;2022-08-21T06:58:46;99396.16;;;24.18;58.29
54329;BME280;40710;51.120;13.136;2022-08-21T07:01:10;99390.13;;;24.32;58.09
54329;BME280;40710;51.120;13.136;2022-08-21T07:03:40;99391.47;;;24.20;58.08
54329;BME280;40710;51.120;13.136;2022-08-21T07:06:06;99401.38;;;24.20;58.76
54329;BME280;40710;51.120;13.136;2022-08-21T07:08:31;99396.34;;;24.16;58.58
54329;BME280;40710;51.120;13.136;2022-08-21T07:10:57;99394.63;;;24.40;58.27
54329;BME280;40710;51.120;13.136;2022-08-21T07:13:22;99398.16;;;24.57;57.18
54329;BME280;40710;51.120;13.136;2022-08-21T07:15:47;99389.75;;;24.60;57.64
54329;BME280;40710;51.120;13.136;2022-08-21T07:18:12;99393.97;;;24.55;57.37
54329;BME280;40710;51.120;13.136;2022-08-21T07:20:37;99386.78;;;24.95;56.83
54329;BME280;40710;51.120;13.136;2022-08-21T07:23:05;99385.13;;;24.94;56.82
54329;BME280;40710;51.120;13.136;2022-08-21T07:25:30;99383.69;;;25.54;55.47
54329;BME280;40710;51.120;13.136;2022-08-21T07:27:55;99379.13;;;25.54;54.60
54329;BME280;40710;51.120;13.136;2022-08-21T07:30:19;99381.28;;;25.59;54.08
54329;BME280;40710;51.120;13.136;2022-08-21T07:32:44;99376.25;;;25.56;54.66
54329;BME280;40710;51.120;13.136;2022-08-21T07:35:08;99385.56;;;25.45;54.51
54329;BME280;40710;51.120;13.136;2022-08-21T07:37:33;99390.25;;;25.51;54.61
54329;BME280;40710;51.120;13.136;2022-08-21T07:39:57;99389.59;;;25.49;54.94
54329;BME280;40710;51.120;13.136;2022-08-21T07:42:22;99387.22;;;25.77;53.99
54329;BME280;40710;51.120;13.136;2022-08-21T07:44:46;99388.75;;;25.72;54.23
54329;BME280;40710;51.120;13.136;2022-08-21T07:47:11;99394.63;;;25.75;54.56
54329;BME280;40710;51.120;13.136;2022-08-21T07:49:35;99396.16;;;25.46;54.67
54329;BME280;40710;51.120;13.136;2022-08-21T07:52:00;99389.00;;;25.39;55.12
54329;BME280;40710;51.120;13.136;2022-08-21T07:54:25;99391.28;;;25.73;54.25
54329;BME280;40710;51.120;13.136;2022-08-21T07:56:50;99389.06;;;25.54;54.84
54329;BME280;40710;51.120;13.136;2022-08-21T07:59:14;99389.25;;;25.75;54.55
54329;BME280;40710;51.120;13.136;2022-08-21T08:01:39;99381.41;;;25.89;54.70
54329;BME280;40710;51.120;13.136;2022-08-21T08:04:03;99386.28;;;25.93;53.99
54329;BME280;40710;51.120;13.136;2022-08-21T08:06:28;99386.72;;;25.51;54.24
54329;BME280;40710;51.120;13.136;2022-08-21T08:08:52;99389.31;;;25.90;54.21
54329;BME280;40710;51.120;13.136;2022-08-21T08:11:17;99391.94;;;25.75;54.36
54329;BME280;40710;51.120;13.136;2022-08-21T08:13:47;99396.06;;;25.63;54.03
54329;BME280;40710;51.120;13.136;2022-08-21T08:16:13;99394.88;;;25.34;54.70
54329;BME280;40710;51.120;13.136;2022-08-21T08:18:38;99392.53;;;25.62;54.33
54329;BME280;40710;51.120;13.136;2022-08-21T08:21:03;99382.84;;;25.76;53.96
54329;BME280;40710;51.120;13.136;2022-08-21T08:23:27;99384.75;;;25.67;53.65
54329;BME280;40710;51.120;13.136;2022-08-21T08:25:51;99386.28;;;25.70;53.27
54329;BME280;40710;51.120;13.136;2022-08-21T08:28:16;99393.63;;;25.76;53.35
54329;BME280;40710;51.120;13.136;2022-08-21T08:30:40;99389.81;;;25.94;52.45
54329;BME280;40710;51.120;13.136;2022-08-21T08:33:06;99394.53;;;25.92;53.63
54329;BME280;40710;51.120;13.136;2022-08-21T08:35:31;99395.53;;;25.67;53.87
54329;BME280;40710;51.120;13.136;2022-08-21T08:37:55;99388.59;;;25.73;53.22
54329;BME280;40710;51.120;13.136;2022-08-21T08:40:28;99398.00;;;25.77;52.88
54329;BME280;40710;51.120;13.136;2022-08-21T08:42:56;99393.41;;;26.09;52.74
54329;BME280;40710;51.120;13.136;2022-08-21T08:45:21;99394.56;;;25.83;53.05
54329;BME280;40710;51.120;13.136;2022-08-21T08:47:52;99392.19;;;25.89;52.89
54329;BME280;40710;51.120;13.136;2022-08-21T08:50:26;99396.41;;;26.14;50.97
54329;BME280;40710;51.120;13.136;2022-08-21T08:52:58;99395.97;;;26.02;50.08
54329;BME280;40710;51.120;13.136;2022-08-21T08:55:32;99395.44;;;26.07;49.49
54329;BME280;40710;51.120;13.136;2022-08-21T08:57:57;99388.09;;;26.01;48.13
54329;BME280;40710;51.120;13.136;2022-08-21T09:00:23;99393.69;;;26.14;47.28
54329;BME280;40710;51.120;13.136;2022-08-21T09:02:52;99386.75;;;26.20;46.47
54329;BME280;40710;51.120;13.136;2022-08-21T09:05:22;99396.00;;;26.55;46.39
54329;BME280;40710;51.120;13.136;2022-08-21T09:10:38;99399.66;;;26.92;45.16
54329;BME280;40710;51.120;13.136;2022-08-21T09:15:51;99397.34;;;26.89;44.81
54329;BME280;40710;51.120;13.136;2022-08-21T09:18:28;99399.66;;;26.92;45.04
54329;BME280;40710;51.120;13.136;2022-08-21T09:21:18;99397.22;;;26.53;45.93
54329;BME280;40710;51.120;13.136;2022-08-21T09:24:09;99401.41;;;27.15;45.93
54329;BME280;40710;51.120;13.136;2022-08-21T09:26:48;99392.63;;;26.62;45.00
54329;BME280;40710;51.120;13.136;2022-08-21T09:29:20;99387.31;;;26.83;42.66
54329;BME280;40710;51.120;13.136;2022-08-21T09:31:47;99387.78;;;26.72;42.31
54329;BME280;40710;51.120;13.136;2022-08-21T09:34:12;99386.47;;;26.97;41.80
54329;BME280;40710;51.120;13.136;2022-08-21T09:36:41;99379.66;;;27.16;40.96
54329;BME280;40710;51.120;13.136;2022-08-21T09:39:08;99390.94;;;26.90;43.13
54329;BME280;40710;51.120;13.136;2022-08-21T09:41:34;99385.63;;;26.97;41.97
54329;BME280;40710;51.120;13.136;2022-08-21T09:43:59;99374.06;;;27.18;41.89
54329;BME280;40710;51.120;13.136;2022-08-21T09:46:25;99385.69;;;27.19;42.84
54329;BME280;40710;51.120;13.136;2022-08-21T09:48:52;99382.19;;;26.88;43.22
54329;BME280;40710;51.120;13.136;2022-08-21T09:51:21;99380.22;;;26.82;41.60
54329;BME280;40710;51.120;13.136;2022-08-21T09:53:51;99379.31;;;26.90;41.16
54329;BME280;40710;51.120;13.136;2022-08-21T09:56:30;99373.56;;;26.93;40.01
54329;BME280;40710;51.120;13.136;2022-08-21T09:59:31;99369.72;;;27.02;39.61
54329;BME280;40710;51.120;13.136;2022-08-21T10:01:57;99369.41;;;27.12;40.23
54329;BME280;40710;51.120;13.136;2022-08-21T10:04:34;99374.16;;;27.10;40.00
54329;BME280;40710;51.120;13.136;2022-08-21T10:07:09;99380.50;;;27.02;40.90
54329;BME280;40710;51.120;13.136;2022-08-21T10:09:34;99378.66;;;27.03;40.10
54329;BME280;40710;51.120;13.136;2022-08-21T10:12:22;99371.38;;;27.18;39.42
54329;BME280;40710;51.120;13.136;2022-08-21T10:15:00;99371.47;;;27.10;38.90
54329;BME280;40710;51.120;13.136;2022-08-21T10:17:41;99371.09;;;26.98;39.06
54329;BME280;40710;51.120;13.136;2022-08-21T10:20:14;99367.88;;;26.88;38.29
54329;BME280;40710;51.120;13.136;2022-08-21T10:25:21;99380.03;;;26.84;39.44
54329;BME280;40710;51.120;13.136;2022-08-21T10:27:58;99373.81;;;26.83;39.36
54329;BME280;40710;51.120;13.136;2022-08-21T10:30:46;99373.72;;;26.76;38.66
54329;BME280;40710;51.120;13.136;2022-08-21T10:36:15;99374.81;;;27.12;39.88
54329;BME280;40710;51.120;13.136;2022-08-21T10:39:02;99371.78;;;26.85;38.63
54329;BME280;40710;51.120;13.136;2022-08-21T10:41:50;99370.66;;;26.79;38.61
54329;BME280;40710;51.120;13.136;2022-08-21T10:44:31;99365.78;;;27.05;37.01
54329;BME280;40710;51.120;13.136;2022-08-21T10:47:05;99378.28;;;26.76;37.63
54329;BME280;40710;51.120;13.136;2022-08-21T10:49:57;99366.84;;;27.04;37.42
54329;BME280;40710;51.120;13.136;2022-08-21T10:52:54;99372.09;;;27.12;37.88
54329;BME280;40710;51.120;13.136;2022-08-21T10:55:39;99362.84;;;27.51;37.72
54329;BME280;40710;51.120;13.136;2022-08-21T10:58:10;99372.69;;;27.59;37.93
54329;BME280;40710;51.120;13.136;2022-08-21T11:00:50;99359.78;;;27.97;38.40
54329;BME280;40710;51.120;13.136;2022-08-21T11:03:32;99356.47;;;28.23;37.11
54329;BME280;40710;51.120;13.136;2022-08-21T11:06:04;99366.13;;;28.67;38.07
54329;BME280;40710;51.120;13.136;2022-08-21T11:08:38;99352.75;;;28.94;36.04
54329;BME280;40710;51.120;13.136;2022-08-21T11:11:07;99350.25;;;29.41;35.67
54329;BME280;40710;51.120;13.136;2022-08-21T11:13:42;99351.53;;;29.58;34.37
54329;BME280;40710;51.120;13.136;2022-08-21T11:16:32;99352.03;;;30.15;33.64
54329;BME280;40710;51.120;13.136;2022-08-21T11:19:04;99360.78;;;29.22;33.15
54329;BME280;40710;51.120;13.136;2022-08-21T11:21:42;99367.03;;;30.05;33.56
54329;BME280;40710;51.120;13.136;2022-08-21T11:24:20;99361.19;;;29.81;34.51
54329;BME280;40710;51.120;13.136;2022-08-21T11:26:53;99366.59;;;30.08;33.33
54329;BME280;40710;51.120;13.136;2022-08-21T11:29:38;99361.81;;;30.30;31.51
54329;BME280;40710;51.120;13.136;2022-08-21T11:32:24;99369.75;;;30.31;32.63
54329;BME280;40710;51.120;13.136;2022-08-21T11:37:51;99364.16;;;31.05;31.92
54329;BME280;40710;51.120;13.136;2022-08-21T11:41:03;99358.53;;;31.52;31.17
54329;BME280;40710;51.120;13.136;2022-08-21T11:46:11;99359.22;;;31.79;30.71
54329;BME280;40710;51.120;13.136;2022-08-21T11:51:32;99352.91;;;31.01;32.21
54329;BME280;40710;51.120;13.136;2022-08-21T11:54:06;99347.06;;;31.04;32.20
54329;BME280;40710;51.120;13.136;2022-08-21T11:56:37;99357.31;;;30.96;32.56
54329;BME280;40710;51.120;13.136;2022-08-21T11:59:38;99340.69;;;30.72;30.80
54329;BME280;40710;51.120;13.136;2022-08-21T12:02:11;99346.41;;;30.37;31.78
54329;BME280;40710;51.120;13.136;2022-08-21T12:04:46;99339.31;;;30.09;32.25
54329;BME280;40710;51.120;13.136;2022-08-21T12:07:29;99348.25;;;30.16;31.93
54329;BME280;40710;51.120;13.136;2022-08-21T12:09:56;99348.69;;;30.40;32.59
54329;BME280;40710;51.120;13.136;2022-08-21T12:12:30;99350.56;;;30.20;33.03
54329;BME280;40710;51.120;13.136;2022-08-21T12:17:40;99346.56;;;29.82;32.52
54329;BME280;40710;51.120;13.136;2022-08-21T12:22:50;99349.50;;;29.87;32.36
54329;BME280;40710;51.120;13.136;2022-08-21T12:25:18;99347.84;;;29.86;32.89
54329;BME280;40710;51.120;13.136;2022-08-21T12:28:02;99342.84;;;30.30;33.61
54329;BME280;40710;51.120;13.136;2022-08-21T12:30:37;99344.69;;;30.56;32.35
54329;BME280;40710;51.120;13.136;2022-08-21T12:33:24;99338.69;;;30.41;32.98
54329;BME280;40710;51.120;13.136;2022-08-21T12:35:51;99341.56;;;30.26;33.10
54329;BME280;40710;51.120;13.136;2022-08-21T12:38:28;99342.38;;;30.66;32.69
54329;BME280;40710;51.120;13.136;2022-08-21T12:40:54;99343.53;;;31.04;31.94
54329;BME280;40710;51.120;13.136;2022-08-21T12:43:26;99339.19;;;30.83;31.55
54329;BME280;40710;51.120;13.136;2022-08-21T12:45:52;99334.00;;;31.26;31.89
54329;BME280;40710;51.120;13.136;2022-08-21T12:48:39;99323.34;;;31.32;30.92
54329;BME280;40710;51.120;13.136;2022-08-21T12:51:23;99339.06;;;31.23;31.43
54329;BME280;40710;51.120;13.136;2022-08-21T12:53:52;99330.28;;;31.21;31.33
54329;BME280;40710;51.120;13.136;2022-08-21T12:56:23;99327.63;;;31.07;32.00
54329;BME280;40710;51.120;13.136;2022-08-21T12:58:57;99323.69;;;31.03;31.88
54329;BME280;40710;51.120;13.136;2022-08-21T13:01:29;99330.03;;;31.29;31.59
54329;BME280;40710;51.120;13.136;2022-08-21T13:03:58;99331.69;;;31.30;31.59
54329;BME280;40710;51.120;13.136;2022-08-21T13:06:26;99331.34;;;31.20;30.99
54329;BME280;40710;51.120;13.136;2022-08-21T13:08:57;99329.97;;;30.84;32.21
54329;BME280;40710;51.120;13.136;2022-08-21T13:11:28;99332.28;;;30.87;32.06
54329;BME280;40710;51.120;13.136;2022-08-21T13:13:53;99328.38;;;30.69;31.85
54329;BME280;40710;51.120;13.136;2022-08-21T13:16:23;99334.00;;;30.68;32.12
54329;BME280;40710;51.120;13.136;2022-08-21T13:18:56;99324.56;;;30.84;32.79
54329;BME280;40710;51.120;13.136;2022-08-21T13:21:21;99323.75;;;31.35;31.67